»·PEaware :: DAL2615 KSLC-KSAN

DAL2615 :: KSLC-KSAN

FLIGHT INFORMATION

Flight Status: Arrived
Operator:
Delta Air Lines
More flights by this operator :: More flights under this callsign
Pilot: Joshua A. (20601)
Aircraft: BOEING 737-800
(B738)
More flights by this aircraft type
Origin: KSLC Salt Lake City Intl
United States
Destination: KSAN San Diego Intl-Lindbergh
United States
More flights between these airports :: More routes between these airports
Route: ZIONZ1 EHK LAKRR Q73 LVELL LUCKI1
File this flight plan on PilotEdge
Remarks:
Altitude:
(Current/Filed)
34,000ft
Speed:
(Current/Filed)
450kts
Departed: 30-Sep-18 12:17 PM
Arrived: 30-Sep-18 01:47 PM
Distance/Time
Traveled:
545nm/1:30
Distance/Time
To Go:
Arrived

Flight Plot

Page will automatically refresh every two minutes.

Flight plan parsing failed; only flown route is shown


Map Options




Map Legend


Flown Route
Filed Route
Departure Airport
Arrival Airport
Navaid (VOR, NDB)
Fix

Horizontal Profiles

Position Reports

Time Latitude Longitude Heading Altitude Ground
Speed
30-Sep-18 11:48 40.789264 -111.981618 168 4234ft 0kts
30-Sep-18 11:49 40.789264 -111.981618 168 4234ft 0kts
30-Sep-18 11:50 40.789264 -111.981618 168 4234ft 0kts
30-Sep-18 11:51 40.789264 -111.981618 168 4234ft 0kts
30-Sep-18 11:52 40.789264 -111.981618 168 4234ft 0kts
30-Sep-18 11:53 40.789264 -111.981618 168 4234ft 0kts
30-Sep-18 11:54 40.789264 -111.981618 168 4234ft 0kts
30-Sep-18 11:55 40.789264 -111.981618 168 4234ft 0kts
30-Sep-18 11:56 40.789264 -111.981618 168 4234ft 0kts
30-Sep-18 11:57 40.789264 -111.981618 168 4234ft 0kts
30-Sep-18 11:58 40.789264 -111.981618 168 4234ft 0kts
30-Sep-18 11:59 40.789264 -111.981618 168 4234ft 0kts
30-Sep-18 12:00 40.789264 -111.981618 168 4234ft 0kts
30-Sep-18 12:01 40.789264 -111.981618 168 4234ft 0kts
30-Sep-18 12:02 40.789264 -111.981618 168 4234ft 0kts
30-Sep-18 12:03 40.789264 -111.981618 168 4234ft 0kts
30-Sep-18 12:04 40.789334 -111.981636 169 4235ft 2kts
30-Sep-18 12:05 40.789888 -111.981517 233 4235ft 2kts
30-Sep-18 12:06 40.789968 -111.981190 265 4234ft 0kts
30-Sep-18 12:07 40.789968 -111.981190 265 4234ft 0kts
30-Sep-18 12:08 40.789968 -111.981190 265 4234ft 0kts
30-Sep-18 12:09 40.790124 -111.981349 354 4234ft 2kts
30-Sep-18 12:10 40.791098 -111.981440 354 4234ft 2kts
30-Sep-18 12:11 40.792016 -111.978541 85 4234ft 8kts
30-Sep-18 12:12 40.794135 -111.977563 354 4234ft 15kts
30-Sep-18 12:13 40.797527 -111.977961 355 4234ft 9kts
30-Sep-18 12:14 40.801695 -111.978470 355 4234ft 13kts
30-Sep-18 12:15 40.804406 -111.978404 358 4234ft 5kts
30-Sep-18 12:16 40.806965 -111.978607 7 4234ft 3kts
30-Sep-18 12:17 40.807098 -111.978567 20 4234ft 2kts
30-Sep-18 12:18 40.807196 -111.976971 150 4234ft 2kts
30-Sep-18 12:19 40.796788 -111.975739 175 4235ft 140kts
30-Sep-18 12:20 40.745317 -111.967316 172 6543ft 215kts
30-Sep-18 12:21 40.686995 -111.952869 170 7275ft 220kts
30-Sep-18 12:22 40.620892 -111.944702 182 8772ft 282kts
30-Sep-18 12:23 40.539531 -111.948433 182 9990ft 296kts
30-Sep-18 12:24 40.456316 -111.952043 178 12276ft 312kts
30-Sep-18 12:25 40.367776 -111.945630 179 15230ft 333kts
30-Sep-18 12:26 40.272632 -111.939007 180 17997ft 353kts
30-Sep-18 12:27 40.174133 -111.953398 189 20712ft 366kts
30-Sep-18 12:28 40.076661 -111.968317 189 22719ft 350kts
30-Sep-18 12:29 39.975691 -111.983150 189 24224ft 386kts
30-Sep-18 12:30 39.868725 -111.998746 189 26321ft 400kts
30-Sep-18 12:31 39.756429 -112.015090 189 28301ft 413kts
30-Sep-18 12:32 39.641825 -112.031703 189 30412ft 415kts
30-Sep-18 12:33 39.530894 -112.047746 188 33001ft 396kts
30-Sep-18 12:34 39.421962 -112.063411 187 34004ft 407kts
30-Sep-18 12:35 39.305185 -112.079982 187 33998ft 435kts
30-Sep-18 12:36 39.185679 -112.096876 187 33992ft 433kts
30-Sep-18 12:37 39.074282 -112.147738 210 33989ft 430kts
30-Sep-18 12:38 38.970558 -112.223455 210 33991ft 430kts
30-Sep-18 12:39 38.867659 -112.298189 210 33996ft 430kts
30-Sep-18 12:40 38.765188 -112.372361 210 33994ft 430kts
30-Sep-18 12:41 38.661238 -112.447362 210 33993ft 430kts
30-Sep-18 12:42 38.557458 -112.522000 210 34043ft 430kts
30-Sep-18 12:43 38.453189 -112.596745 210 34046ft 430kts
30-Sep-18 12:44 38.350204 -112.670311 209 34046ft 431kts
30-Sep-18 12:45 38.243517 -112.746249 210 34020ft 440kts
30-Sep-18 12:46 38.136964 -112.821884 210 34021ft 440kts
30-Sep-18 12:47 38.030664 -112.897076 210 34021ft 440kts
30-Sep-18 12:48 37.923841 -112.972380 210 34103ft 441kts
30-Sep-18 12:49 37.818629 -113.046295 210 34102ft 440kts
30-Sep-18 12:50 37.712398 -113.122506 211 34102ft 440kts
30-Sep-18 12:51 37.605982 -113.198627 211 34102ft 441kts
30-Sep-18 12:52 37.499480 -113.274560 211 34101ft 441kts
30-Sep-18 12:53 37.393088 -113.350427 211 34101ft 441kts
30-Sep-18 12:54 37.286744 -113.426298 211 34058ft 442kts
30-Sep-18 12:55 37.180286 -113.502287 211 33965ft 442kts
30-Sep-18 12:56 37.073795 -113.578339 212 33965ft 442kts
30-Sep-18 12:57 36.967219 -113.654490 211 33965ft 442kts
30-Sep-18 12:58 36.867166 -113.725994 211 33968ft 443kts
30-Sep-18 12:59 36.760623 -113.802191 211 33968ft 443kts
30-Sep-18 13:00 36.653739 -113.878680 211 33966ft 445kts
30-Sep-18 13:01 36.546713 -113.955297 211 33967ft 446kts
30-Sep-18 13:02 36.439387 -114.032169 212 33967ft 446kts
30-Sep-18 13:03 36.332206 -114.108973 212 33967ft 446kts
30-Sep-18 13:04 36.225198 -114.185690 212 33966ft 446kts
30-Sep-18 13:05 36.117951 -114.262616 212 33890ft 449kts
30-Sep-18 13:06 36.028118 -114.364825 230 33881ft 442kts
30-Sep-18 13:07 35.946356 -114.477601 230 33885ft 442kts
30-Sep-18 13:08 35.865117 -114.589365 230 33883ft 442kts
30-Sep-18 13:09 35.783735 -114.701409 229 33887ft 442kts
30-Sep-18 13:10 35.702168 -114.813852 229 33886ft 442kts
30-Sep-18 13:11 35.620279 -114.926332 229 33890ft 443kts
30-Sep-18 13:12 35.538055 -115.038558 229 33886ft 442kts
30-Sep-18 13:13 35.431150 -115.111508 201 33883ft 451kts
30-Sep-18 13:14 35.313143 -115.160351 200 33832ft 451kts
30-Sep-18 13:15 35.194326 -115.209297 201 33831ft 452kts
30-Sep-18 13:16 35.075397 -115.258279 201 33832ft 452kts
30-Sep-18 13:17 34.956761 -115.307147 201 33857ft 452kts
30-Sep-18 13:18 34.841531 -115.354623 201 33857ft 452kts
30-Sep-18 13:19 34.722673 -115.403602 201 33857ft 452kts
30-Sep-18 13:20 34.603641 -115.452663 201 33857ft 452kts
30-Sep-18 13:21 34.484832 -115.501641 201 33857ft 453kts
30-Sep-18 13:22 34.366137 -115.550579 201 33890ft 452kts
30-Sep-18 13:23 34.247085 -115.599674 201 33965ft 453kts
30-Sep-18 13:24 34.131580 -115.651872 203 33965ft 452kts
30-Sep-18 13:25 34.028628 -115.700615 203 33969ft 452kts
30-Sep-18 13:26 33.915955 -115.753621 204 33725ft 408kts
30-Sep-18 13:27 33.813739 -115.803881 204 31684ft 409kts
30-Sep-18 13:28 33.726317 -115.845902 202 29831ft 413kts
30-Sep-18 13:29 33.600600 -115.904563 203 27387ft 412kts
30-Sep-18 13:30 33.503296 -115.968579 233 25373ft 391kts
30-Sep-18 13:31 33.441285 -116.072005 237 23443ft 377kts
30-Sep-18 13:32 33.382110 -116.173473 238 21598ft 370kts
30-Sep-18 13:33 33.329531 -116.252648 217 20057ft 366kts
30-Sep-18 13:34 33.224524 -116.316268 208 17961ft 359kts
30-Sep-18 13:35 33.150782 -116.359409 208 16561ft 353kts
30-Sep-18 13:36 33.063866 -116.410163 208 14847ft 345kts
30-Sep-18 13:37 32.982881 -116.466128 223 13338ft 334kts
30-Sep-18 13:38 32.913766 -116.536717 222 11685ft 317kts
30-Sep-18 13:39 32.838479 -116.612667 221 9894ft 286kts
30-Sep-18 13:40 32.790694 -116.660757 222 8795ft 278kts
30-Sep-18 13:41 32.756972 -116.712736 240 7797ft 263kts
30-Sep-18 13:42 32.722322 -116.786655 240 6528ft 250kts
30-Sep-18 13:43 32.694913 -116.857480 251 5397ft 225kts
30-Sep-18 13:44 32.674106 -116.927731 256 4305ft 217kts
30-Sep-18 13:45 32.686408 -116.996237 285 3289ft 204kts
30-Sep-18 13:46 32.701106 -117.056390 286 2383ft 191kts
30-Sep-18 13:47 32.714961 -117.113692 287 1464ft 164kts
30-Sep-18 13:48 32.727123 -117.162824 287 457ft 147kts
30-Sep-18 13:49 32.735361 -117.197043 287 17ft 24kts
30-Sep-18 13:50 32.735490 -117.202023 286 17ft 16kts
30-Sep-18 13:51 32.734507 -117.205533 190 17ft 9kts
30-Sep-18 13:52 32.732493 -117.205369 173 17ft 0kts
30-Sep-18 13:53 32.732481 -117.205367 173 17ft 0kts
30-Sep-18 13:54 32.732481 -117.205367 173 17ft 0kts
30-Sep-18 13:55 32.732481 -117.205367 173 17ft 0kts
30-Sep-18 13:56 32.732481 -117.205367 173 17ft 0kts
30-Sep-18 13:57 32.732481 -117.205367 173 17ft 0kts
30-Sep-18 13:58 32.732481 -117.205367 173 17ft 0kts
30-Sep-18 13:59 32.732481 -117.205367 173 17ft 0kts
30-Sep-18 14:00 32.732481 -117.205367 173 17ft 0kts
30-Sep-18 14:01 32.732481 -117.205367 173 17ft 0kts
30-Sep-18 14:02 32.732481 -117.205367 173 17ft 0kts
30-Sep-18 14:03 32.732481 -117.205367 173 17ft 0kts
30-Sep-18 14:04 32.732481 -117.205367 173 17ft 0kts

Navigation Log

Ident Type
Flight plan parsing failed, navigation log unavailable